Time,TemperatureF,DewpointF,PressureIn,WindDirection,WindDirectionDegrees,WindSpeedMPH,WindSpeedGustMPH,Humidity,HourlyPrecipIn,Conditions,Clouds,dailyrainin,SoftwareType,DateUTC
2013-10-16 00:00:00,64.2,58.6,29.82,North,-999,-999.0,-999.0,82,0.00,,,0.00,HomebrewedOnLinux,2013-10-16 04:00:00,
2013-10-16 00:05:00,64.2,58.6,29.85,North,-999,-999.0,-999.0,82,0.00,,,0.00,HomebrewedOnLinux,2013-10-16 04:05:00,
2013-10-16 00:10:00,64.0,58.4,29.85,North,-999,-999.0,-999.0,82,0.00,,,0.00,HomebrewedOnLinux,2013-10-16 04:10:00,
2013-10-16 00:15:00,64.0,58.4,29.85,North,-999,-999.0,-999.0,82,0.00,,,0.00,HomebrewedOnLinux,2013-10-16 04:15:00,
2013-10-16 00:20:00,63.9,58.3,29.82,North,-999,-999.0,-999.0,82,0.00,,,0.00,HomebrewedOnLinux,2013-10-16 04:20:00,
2013-10-16 00:25:00,63.9,58.3,29.82,North,-999,-999.0,-999.0,82,0.00,,,0.00,HomebrewedOnLinux,2013-10-16 04:25:00,
2013-10-16 00:30:00,63.9,58.3,29.82,North,-999,-999.0,-999.0,82,0.00,,,0.00,HomebrewedOnLinux,2013-10-16 04:30:00,
2013-10-16 00:35:00,63.9,58.3,29.82,North,-999,-999.0,-999.0,82,0.00,,,0.00,HomebrewedOnLinux,2013-10-16 04:35:00,
2013-10-16 00:40:00,63.7,58.1,29.82,North,-999,-999.0,-999.0,82,0.00,,,0.00,HomebrewedOnLinux,2013-10-16 04:40:00,
2013-10-16 00:45:00,63.3,57.8,29.82,North,-999,-999.0,-999.0,82,0.00,,,0.00,HomebrewedOnLinux,2013-10-16 04:45:00,
2013-10-16 00:50:00,63.3,58.1,29.82,North,-999,-999.0,-999.0,83,0.00,,,0.00,HomebrewedOnLinux,2013-10-16 04:50:00,
2013-10-16 00:55:00,63.1,57.9,29.82,North,-999,-999.0,-999.0,83,0.00,,,0.00,HomebrewedOnLinux,2013-10-16 04:55:00,
2013-10-16 01:00:00,63.1,57.9,29.82,North,-999,-999.0,-999.0,83,0.00,,,0.00,HomebrewedOnLinux,2013-10-16 05:00:00,
2013-10-16 01:05:00,63.1,57.9,29.82,North,-999,-999.0,-999.0,83,0.00,,,0.00,HomebrewedOnLinux,2013-10-16 05:05:00,
2013-10-16 01:10:00,63.0,57.7,29.82,North,-999,-999.0,-999.0,83,0.00,,,0.00,HomebrewedOnLinux,2013-10-16 05:10:00,
2013-10-16 01:15:00,62.8,57.6,29.82,North,-999,-999.0,-999.0,83,0.00,,,0.00,HomebrewedOnLinux,2013-10-16 05:15:00,
2013-10-16 01:20:00,62.6,57.5,29.82,North,-999,-999.0,-999.0,84,0.00,,,0.00,HomebrewedOnLinux,2013-10-16 05:20:00,
2013-10-16 01:25:00,62.6,57.7,29.82,North,-999,-999.0,-999.0,84,0.00,,,0.00,HomebrewedOnLinux,2013-10-16 05:25:00,
2013-10-16 01:30:00,62.6,57.7,29.82,North,-999,-999.0,-999.0,84,0.00,,,0.00,HomebrewedOnLinux,2013-10-16 05:30:00,
2013-10-16 01:35:00,62.6,57.7,29.82,North,-999,-999.0,-999.0,84,0.00,,,0.00,HomebrewedOnLinux,2013-10-16 05:35:00,
2013-10-16 01:40:00,62.4,57.8,29.82,North,-999,-999.0,-999.0,85,0.00,,,0.00,HomebrewedOnLinux,2013-10-16 05:40:00,
2013-10-16 01:45:00,62.4,57.8,29.82,North,-999,-999.0,-999.0,85,0.00,,,0.00,HomebrewedOnLinux,2013-10-16 05:45:00,
2013-10-16 01:50:00,62.4,57.8,29.82,North,-999,-999.0,-999.0,85,0.00,,,0.00,HomebrewedOnLinux,2013-10-16 05:50:00,
2013-10-16 01:55:00,62.2,57.7,29.82,North,-999,-999.0,-999.0,85,0.00,,,0.00,HomebrewedOnLinux,2013-10-16 05:55:00,
2013-10-16 02:00:00,62.2,57.9,29.82,North,-999,-999.0,-999.0,86,0.00,,,0.00,HomebrewedOnLinux,2013-10-16 06:00:00,
2013-10-16 02:05:00,62.2,58.0,29.79,North,-999,-999.0,-999.0,86,0.00,,,0.00,HomebrewedOnLinux,2013-10-16 06:05:00,
2013-10-16 02:10:00,62.1,57.8,29.79,North,-999,-999.0,-999.0,86,0.00,,,0.00,HomebrewedOnLinux,2013-10-16 06:10:00,
2013-10-16 02:15:00,61.9,58.0,29.79,North,-999,-999.0,-999.0,87,0.00,,,0.00,HomebrewedOnLinux,2013-10-16 06:15:00,
2013-10-16 02:20:00,61.9,58.0,29.82,North,-999,-999.0,-999.0,87,0.00,,,0.00,HomebrewedOnLinux,2013-10-16 06:20:00,
2013-10-16 02:25:00,61.9,58.0,29.82,North,-999,-999.0,-999.0,87,0.00,,,0.00,HomebrewedOnLinux,2013-10-16 06:25:00,
2013-10-16 02:30:00,62.1,58.1,29.82,North,-999,-999.0,-999.0,87,0.00,,,0.00,HomebrewedOnLinux,2013-10-16 06:30:00,
2013-10-16 02:35:00,61.9,58.0,29.82,North,-999,-999.0,-999.0,87,0.00,,,0.00,HomebrewedOnLinux,2013-10-16 06:35:00,
2013-10-16 02:45:00,61.7,58.0,29.82,North,-999,-999.0,-999.0,88,0.00,,,0.00,HomebrewedOnLinux,2013-10-16 06:45:00,
2013-10-16 02:50:00,61.7,58.1,29.79,North,-999,-999.0,-999.0,88,0.00,,,0.00,HomebrewedOnLinux,2013-10-16 06:50:00,
2013-10-16 02:55:00,61.7,58.3,29.79,North,-999,-999.0,-999.0,89,0.00,,,0.00,HomebrewedOnLinux,2013-10-16 06:55:00,
2013-10-16 03:00:00,61.7,58.4,29.79,North,-999,-999.0,-999.0,89,0.00,,,0.00,HomebrewedOnLinux,2013-10-16 07:00:00,
2013-10-16 03:05:00,61.5,58.0,29.79,North,-999,-999.0,-999.0,88,0.00,,,0.00,HomebrewedOnLinux,2013-10-16 07:05:00,
2013-10-16 03:15:00,61.5,58.2,29.79,North,-999,-999.0,-999.0,89,0.00,,,0.00,HomebrewedOnLinux,2013-10-16 07:15:00,
2013-10-16 03:20:00,61.5,58.2,29.77,North,-999,-999.0,-999.0,89,0.00,,,0.00,HomebrewedOnLinux,2013-10-16 07:20:00,
2013-10-16 03:25:00,61.5,58.2,29.77,North,-999,-999.0,-999.0,89,0.00,,,0.00,HomebrewedOnLinux,2013-10-16 07:25:00,
2013-10-16 03:30:00,61.5,58.2,29.77,North,-999,-999.0,-999.0,89,0.00,,,0.00,HomebrewedOnLinux,2013-10-16 07:30:00,
2013-10-16 03:35:00,61.5,58.2,29.79,North,-999,-999.0,-999.0,89,0.00,,,0.00,HomebrewedOnLinux,2013-10-16 07:35:00,
2013-10-16 03:40:00,61.3,58.1,29.79,North,-999,-999.0,-999.0,89,0.00,,,0.00,HomebrewedOnLinux,2013-10-16 07:40:00,
2013-10-16 03:45:00,61.3,58.1,29.79,North,-999,-999.0,-999.0,89,0.00,,,0.00,HomebrewedOnLinux,2013-10-16 07:45:00,
2013-10-16 03:50:00,61.3,58.1,29.79,North,-999,-999.0,-999.0,89,0.00,,,0.00,HomebrewedOnLinux,2013-10-16 07:50:00,
2013-10-16 03:55:00,61.3,58.1,29.79,North,-999,-999.0,-999.0,89,0.00,,,0.00,HomebrewedOnLinux,2013-10-16 07:55:00,
2013-10-16 04:00:00,61.2,57.9,29.79,North,-999,-999.0,-999.0,89,0.00,,,0.00,HomebrewedOnLinux,2013-10-16 08:00:00,
2013-10-16 04:05:00,61.3,58.3,29.79,North,-999,-999.0,-999.0,90,0.00,,,0.00,HomebrewedOnLinux,2013-10-16 08:05:00,
2013-10-16 04:10:00,61.2,58.2,29.79,North,-999,-999.0,-999.0,90,0.00,,,0.00,HomebrewedOnLinux,2013-10-16 08:10:00,
2013-10-16 04:15:00,61.2,58.2,29.79,North,-999,-999.0,-999.0,90,0.00,,,0.00,HomebrewedOnLinux,2013-10-16 08:15:00,
2013-10-16 04:20:00,61.0,57.8,29.77,North,-999,-999.0,-999.0,89,0.00,,,0.00,HomebrewedOnLinux,2013-10-16 08:20:00,
2013-10-16 04:25:00,61.0,57.8,29.77,North,-999,-999.0,-999.0,89,0.00,,,0.00,HomebrewedOnLinux,2013-10-16 08:25:00,
2013-10-16 04:30:00,61.0,58.0,29.77,North,-999,-999.0,-999.0,90,0.00,,,0.00,HomebrewedOnLinux,2013-10-16 08:30:00,
2013-10-16 04:35:00,61.0,58.0,29.79,North,-999,-999.0,-999.0,90,0.00,,,0.00,HomebrewedOnLinux,2013-10-16 08:35:00,
2013-10-16 04:40:00,61.0,58.0,29.79,North,-999,-999.0,-999.0,90,0.00,,,0.00,HomebrewedOnLinux,2013-10-16 08:40:00,
2013-10-16 04:45:00,61.0,58.3,29.79,North,-999,-999.0,-999.0,91,0.00,,,0.00,HomebrewedOnLinux,2013-10-16 08:45:00,
2013-10-16 04:50:00,61.0,58.1,29.77,North,-999,-999.0,-999.0,90,0.00,,,0.00,HomebrewedOnLinux,2013-10-16 08:50:00,
2013-10-16 04:55:00,60.8,57.8,29.77,North,-999,-999.0,-999.0,90,0.00,,,0.00,HomebrewedOnLinux,2013-10-16 08:55:00,
2013-10-16 05:00:00,61.0,58.3,29.77,North,-999,-999.0,-999.0,91,0.00,,,0.00,HomebrewedOnLinux,2013-10-16 09:00:00,
2013-10-16 05:05:00,61.0,58.3,29.77,North,-999,-999.0,-999.0,91,0.00,,,0.00,HomebrewedOnLinux,2013-10-16 09:05:00,
2013-10-16 05:10:00,60.8,58.0,29.77,North,-999,-999.0,-999.0,90,0.00,,,0.00,HomebrewedOnLinux,2013-10-16 09:10:00,
2013-10-16 05:15:00,60.6,58.0,29.77,North,-999,-999.0,-999.0,91,0.00,,,0.00,HomebrewedOnLinux,2013-10-16 09:15:00,
2013-10-16 05:20:00,60.6,58.0,29.79,North,-999,-999.0,-999.0,91,0.00,,,0.00,HomebrewedOnLinux,2013-10-16 09:20:00,
2013-10-16 05:25:00,60.6,58.0,29.79,North,-999,-999.0,-999.0,91,0.00,,,0.00,HomebrewedOnLinux,2013-10-16 09:25:00,
2013-10-16 05:30:00,60.6,58.0,29.79,North,-999,-999.0,-999.0,91,0.00,,,0.00,HomebrewedOnLinux,2013-10-16 09:30:00,
2013-10-16 05:35:00,60.6,58.0,29.79,North,-999,-999.0,-999.0,91,0.00,,,0.00,HomebrewedOnLinux,2013-10-16 09:35:00,
2013-10-16 05:40:00,60.6,58.1,29.79,North,-999,-999.0,-999.0,92,0.00,,,0.00,HomebrewedOnLinux,2013-10-16 09:40:00,
2013-10-16 05:45:00,60.8,58.2,29.79,North,-999,-999.0,-999.0,91,0.00,,,0.00,HomebrewedOnLinux,2013-10-16 09:45:00,
2013-10-16 05:50:00,60.8,58.2,29.79,North,-999,-999.0,-999.0,91,0.00,,,0.00,HomebrewedOnLinux,2013-10-16 09:50:00,
2013-10-16 05:55:00,60.8,58.2,29.79,North,-999,-999.0,-999.0,91,0.00,,,0.00,HomebrewedOnLinux,2013-10-16 09:55:00,
2013-10-16 06:00:00,60.6,58.0,29.79,North,-999,-999.0,-999.0,91,0.00,,,0.00,HomebrewedOnLinux,2013-10-16 10:00:00,
2013-10-16 06:05:00,60.6,58.3,29.79,North,-999,-999.0,-999.0,92,0.00,,,0.00,HomebrewedOnLinux,2013-10-16 10:05:00,
2013-10-16 06:10:00,60.6,58.3,29.79,North,-999,-999.0,-999.0,92,0.00,,,0.00,HomebrewedOnLinux,2013-10-16 10:10:00,
2013-10-16 06:15:00,60.6,58.3,29.79,North,-999,-999.0,-999.0,92,0.00,,,0.00,HomebrewedOnLinux,2013-10-16 10:15:00,
2013-10-16 06:20:00,60.6,58.3,29.82,North,-999,-999.0,-999.0,92,0.00,,,0.00,HomebrewedOnLinux,2013-10-16 10:20:00,
2013-10-16 06:25:00,60.6,58.3,29.82,North,-999,-999.0,-999.0,92,0.00,,,0.00,HomebrewedOnLinux,2013-10-16 10:25:00,
2013-10-16 06:30:00,60.6,58.3,29.82,North,-999,-999.0,-999.0,92,0.00,,,0.00,HomebrewedOnLinux,2013-10-16 10:30:00,
2013-10-16 06:35:00,60.4,58.1,29.82,North,-999,-999.0,-999.0,92,0.00,,,0.00,HomebrewedOnLinux,2013-10-16 10:35:00,
2013-10-16 06:40:00,60.4,58.1,29.82,North,-999,-999.0,-999.0,92,0.00,,,0.00,HomebrewedOnLinux,2013-10-16 10:40:00,
2013-10-16 06:45:00,60.4,58.1,29.82,North,-999,-999.0,-999.0,92,0.00,,,0.00,HomebrewedOnLinux,2013-10-16 10:45:00,
2013-10-16 06:50:00,60.3,57.9,29.79,North,-999,-999.0,-999.0,92,0.00,,,0.00,HomebrewedOnLinux,2013-10-16 10:50:00,
2013-10-16 06:55:00,60.1,57.7,29.79,North,-999,-999.0,-999.0,92,0.00,,,0.00,HomebrewedOnLinux,2013-10-16 10:55:00,
2013-10-16 07:00:00,60.1,57.7,29.79,North,-999,-999.0,-999.0,92,0.00,,,0.00,HomebrewedOnLinux,2013-10-16 11:00:00,
2013-10-16 07:05:00,59.9,57.6,29.82,North,-999,-999.0,-999.0,92,0.00,,,0.00,HomebrewedOnLinux,2013-10-16 11:05:00,
2013-10-16 07:10:00,59.9,57.6,29.82,North,-999,-999.0,-999.0,92,0.00,,,0.00,HomebrewedOnLinux,2013-10-16 11:10:00,
2013-10-16 07:15:00,59.9,57.9,29.82,North,-999,-999.0,-999.0,93,0.00,,,0.00,HomebrewedOnLinux,2013-10-16 11:15:00,
2013-10-16 07:20:00,59.9,57.8,29.79,North,-999,-999.0,-999.0,93,0.00,,,0.00,HomebrewedOnLinux,2013-10-16 11:20:00,
2013-10-16 07:25:00,59.7,57.4,29.79,North,-999,-999.0,-999.0,92,0.00,,,0.00,HomebrewedOnLinux,2013-10-16 11:25:00,
2013-10-16 07:30:00,59.7,57.6,29.79,North,-999,-999.0,-999.0,93,0.00,,,0.00,HomebrewedOnLinux,2013-10-16 11:30:00,
2013-10-16 07:35:00,59.7,57.7,29.79,North,-999,-999.0,-999.0,93,0.00,,,0.00,HomebrewedOnLinux,2013-10-16 11:35:00,
2013-10-16 07:40:00,59.7,57.7,29.79,North,-999,-999.0,-999.0,93,0.00,,,0.00,HomebrewedOnLinux,2013-10-16 11:40:00,
2013-10-16 07:45:00,59.7,57.7,29.79,North,-999,-999.0,-999.0,93,0.00,,,0.00,HomebrewedOnLinux,2013-10-16 11:45:00,
2013-10-16 07:50:00,59.5,57.5,29.79,North,-999,-999.0,-999.0,93,0.00,,,0.00,HomebrewedOnLinux,2013-10-16 11:50:00,
2013-10-16 07:55:00,59.7,57.7,29.79,North,-999,-999.0,-999.0,93,0.00,,,0.00,HomebrewedOnLinux,2013-10-16 11:55:00,
2013-10-16 08:00:00,59.5,57.4,29.79,North,-999,-999.0,-999.0,93,0.00,,,0.00,HomebrewedOnLinux,2013-10-16 12:00:00,
2013-10-16 08:05:00,59.5,57.3,29.82,North,-999,-999.0,-999.0,92,0.00,,,0.00,HomebrewedOnLinux,2013-10-16 12:05:00,
2013-10-16 08:10:00,59.5,57.5,29.82,North,-999,-999.0,-999.0,93,0.00,,,0.00,HomebrewedOnLinux,2013-10-16 12:10:00,
2013-10-16 08:15:00,59.5,57.5,29.82,North,-999,-999.0,-999.0,93,0.00,,,0.00,HomebrewedOnLinux,2013-10-16 12:15:00,
2013-10-16 08:20:00,59.5,57.5,29.82,North,-999,-999.0,-999.0,93,0.00,,,0.00,HomebrewedOnLinux,2013-10-16 12:20:00,
2013-10-16 08:25:00,59.7,57.7,29.82,North,-999,-999.0,-999.0,93,0.00,,,0.00,HomebrewedOnLinux,2013-10-16 12:25:00,
2013-10-16 08:30:00,59.7,57.7,29.82,North,-999,-999.0,-999.0,93,0.00,,,0.00,HomebrewedOnLinux,2013-10-16 12:30:00,
2013-10-16 08:35:00,59.9,57.9,29.82,North,-999,-999.0,-999.0,93,0.00,,,0.00,HomebrewedOnLinux,2013-10-16 12:35:00,
2013-10-16 08:40:00,60.1,58.0,29.82,North,-999,-999.0,-999.0,93,0.00,,,0.00,HomebrewedOnLinux,2013-10-16 12:40:00,
2013-10-16 08:45:00,60.3,58.2,29.82,North,-999,-999.0,-999.0,93,0.00,,,0.00,HomebrewedOnLinux,2013-10-16 12:45:00,
2013-10-16 08:50:00,60.4,58.4,29.82,North,-999,-999.0,-999.0,93,0.00,,,0.00,HomebrewedOnLinux,2013-10-16 12:50:00,
2013-10-16 08:55:00,60.6,58.6,29.82,North,-999,-999.0,-999.0,93,0.00,,,0.00,HomebrewedOnLinux,2013-10-16 12:55:00,
2013-10-16 09:00:00,60.8,58.8,29.82,North,-999,-999.0,-999.0,93,0.00,,,0.00,HomebrewedOnLinux,2013-10-16 13:00:00,
2013-10-16 09:05:00,61.0,58.9,29.82,North,-999,-999.0,-999.0,93,0.00,,,0.00,HomebrewedOnLinux,2013-10-16 13:05:00,
2013-10-16 09:10:00,61.3,59.3,29.82,North,-999,-999.0,-999.0,93,0.00,,,0.00,HomebrewedOnLinux,2013-10-16 13:10:00,
2013-10-16 09:15:00,61.3,59.1,29.82,North,-999,-999.0,-999.0,92,0.00,,,0.00,HomebrewedOnLinux,2013-10-16 13:15:00,
2013-10-16 09:20:00,61.7,59.6,29.82,North,-999,-999.0,-999.0,93,0.00,,,0.00,HomebrewedOnLinux,2013-10-16 13:20:00,
2013-10-16 09:25:00,61.9,59.8,29.82,North,-999,-999.0,-999.0,93,0.00,,,0.00,HomebrewedOnLinux,2013-10-16 13:25:00,
2013-10-16 09:30:00,62.2,59.9,29.82,North,-999,-999.0,-999.0,92,0.00,,,0.00,HomebrewedOnLinux,2013-10-16 13:30:00,
2013-10-16 09:35:00,62.6,60.3,29.85,North,-999,-999.0,-999.0,92,0.00,,,0.00,HomebrewedOnLinux,2013-10-16 13:35:00,
2013-10-16 09:40:00,63.0,60.6,29.85,North,-999,-999.0,-999.0,92,0.00,,,0.00,HomebrewedOnLinux,2013-10-16 13:40:00,
2013-10-16 09:45:00,63.3,61.0,29.85,North,-999,-999.0,-999.0,92,0.00,,,0.00,HomebrewedOnLinux,2013-10-16 13:45:00,
2013-10-16 09:50:00,63.5,61.1,29.85,North,-999,-999.0,-999.0,92,0.00,,,0.00,HomebrewedOnLinux,2013-10-16 13:50:00,
2013-10-16 10:00:00,64.8,61.9,29.85,North,-999,-999.0,-999.0,90,0.00,,,0.00,HomebrewedOnLinux,2013-10-16 14:00:00,
2013-10-16 10:05:00,65.5,62.5,29.85,North,-999,-999.0,-999.0,90,0.00,,,0.00,HomebrewedOnLinux,2013-10-16 14:05:00,
2013-10-16 10:10:00,65.8,62.5,29.85,North,-999,-999.0,-999.0,89,0.00,,,0.00,HomebrewedOnLinux,2013-10-16 14:10:00,
2013-10-16 10:15:00,66.2,62.6,29.85,North,-999,-999.0,-999.0,88,0.00,,,0.00,HomebrewedOnLinux,2013-10-16 14:15:00,
2013-10-16 10:20:00,66.6,62.6,29.82,North,-999,-999.0,-999.0,87,0.00,,,0.00,HomebrewedOnLinux,2013-10-16 14:20:00,
2013-10-16 10:25:00,67.1,63.1,29.82,North,-999,-999.0,-999.0,87,0.00,,,0.00,HomebrewedOnLinux,2013-10-16 14:25:00,
2013-10-16 10:30:00,67.3,62.9,29.82,North,-999,-999.0,-999.0,86,0.00,,,0.00,HomebrewedOnLinux,2013-10-16 14:30:00,
2013-10-16 10:35:00,67.8,63.3,29.85,North,-999,-999.0,-999.0,86,0.00,,,0.00,HomebrewedOnLinux,2013-10-16 14:35:00,
2013-10-16 10:40:00,68.4,63.3,29.85,North,-999,-999.0,-999.0,84,0.00,,,0.00,HomebrewedOnLinux,2013-10-16 14:40:00,
2013-10-16 10:45:00,68.5,63.3,29.85,North,-999,-999.0,-999.0,83,0.00,,,0.00,HomebrewedOnLinux,2013-10-16 14:45:00,
2013-10-16 10:50:00,68.9,63.5,29.85,North,-999,-999.0,-999.0,83,0.00,,,0.00,HomebrewedOnLinux,2013-10-16 14:50:00,
2013-10-16 10:55:00,68.9,63.5,29.85,North,-999,-999.0,-999.0,83,0.00,,,0.00,HomebrewedOnLinux,2013-10-16 14:55:00,
2013-10-16 11:00:00,69.1,63.4,29.85,North,-999,-999.0,-999.0,82,0.00,,,0.00,HomebrewedOnLinux,2013-10-16 15:00:00,
2013-10-16 11:05:00,69.4,63.7,29.85,North,-999,-999.0,-999.0,82,0.00,,,0.00,HomebrewedOnLinux,2013-10-16 15:05:00,
2013-10-16 11:10:00,69.3,63.5,29.85,North,-999,-999.0,-999.0,82,0.00,,,0.00,HomebrewedOnLinux,2013-10-16 15:10:00,
2013-10-16 11:15:00,69.3,63.5,29.85,North,-999,-999.0,-999.0,82,0.00,,,0.00,HomebrewedOnLinux,2013-10-16 15:15:00,
2013-10-16 11:20:00,69.6,63.5,29.85,North,-999,-999.0,-999.0,81,0.00,,,0.00,HomebrewedOnLinux,2013-10-16 15:20:00,
2013-10-16 11:25:00,69.8,63.4,29.85,North,-999,-999.0,-999.0,80,0.00,,,0.00,HomebrewedOnLinux,2013-10-16 15:25:00,
2013-10-16 11:30:00,69.8,63.5,29.85,North,-999,-999.0,-999.0,80,0.00,,,0.00,HomebrewedOnLinux,2013-10-16 15:30:00,
2013-10-16 11:35:00,69.8,63.3,29.82,North,-999,-999.0,-999.0,80,0.00,,,0.00,HomebrewedOnLinux,2013-10-16 15:35:00,
2013-10-16 11:40:00,69.8,63.0,29.82,North,-999,-999.0,-999.0,79,0.00,,,0.00,HomebrewedOnLinux,2013-10-16 15:40:00,
2013-10-16 11:45:00,70.0,63.2,29.82,North,-999,-999.0,-999.0,79,0.00,,,0.00,HomebrewedOnLinux,2013-10-16 15:45:00,
2013-10-16 11:50:00,70.0,62.9,29.82,North,-999,-999.0,-999.0,78,0.00,,,0.00,HomebrewedOnLinux,2013-10-16 15:50:00,
2013-10-16 11:55:00,70.2,63.3,29.82,North,-999,-999.0,-999.0,79,0.00,,,0.00,HomebrewedOnLinux,2013-10-16 15:55:00,
2013-10-16 12:00:00,70.3,63.4,29.82,North,-999,-999.0,-999.0,79,0.00,,,0.00,HomebrewedOnLinux,2013-10-16 16:00:00,
2013-10-16 12:05:00,70.7,63.5,29.82,North,-999,-999.0,-999.0,78,0.00,,,0.00,HomebrewedOnLinux,2013-10-16 16:05:00,
2013-10-16 12:10:00,70.7,63.6,29.82,North,-999,-999.0,-999.0,78,0.00,,,0.00,HomebrewedOnLinux,2013-10-16 16:10:00,
2013-10-16 12:15:00,70.9,63.6,29.82,North,-999,-999.0,-999.0,78,0.00,,,0.00,HomebrewedOnLinux,2013-10-16 16:15:00,
2013-10-16 12:20:00,70.9,63.7,29.82,North,-999,-999.0,-999.0,78,0.00,,,0.00,HomebrewedOnLinux,2013-10-16 16:20:00,
2013-10-16 12:25:00,71.1,63.5,29.82,North,-999,-999.0,-999.0,77,0.00,,,0.00,HomebrewedOnLinux,2013-10-16 16:25:00,
2013-10-16 12:30:00,71.1,63.5,29.82,North,-999,-999.0,-999.0,77,0.00,,,0.00,HomebrewedOnLinux,2013-10-16 16:30:00,
2013-10-16 12:35:00,71.1,63.3,29.82,North,-999,-999.0,-999.0,76,0.00,,,0.00,HomebrewedOnLinux,2013-10-16 16:35:00,
2013-10-16 12:40:00,71.2,63.0,29.82,North,-999,-999.0,-999.0,75,0.00,,,0.00,HomebrewedOnLinux,2013-10-16 16:40:00,
2013-10-16 12:45:00,71.2,63.0,29.82,North,-999,-999.0,-999.0,75,0.00,,,0.00,HomebrewedOnLinux,2013-10-16 16:45:00,
2013-10-16 12:50:00,71.4,62.9,29.82,North,-999,-999.0,-999.0,75,0.00,,,0.00,HomebrewedOnLinux,2013-10-16 16:50:00,
2013-10-16 12:55:00,71.6,62.7,29.82,North,-999,-999.0,-999.0,74,0.00,,,0.00,HomebrewedOnLinux,2013-10-16 16:55:00,
2013-10-16 13:00:00,72.0,62.8,29.82,North,-999,-999.0,-999.0,73,0.00,,,0.00,HomebrewedOnLinux,2013-10-16 17:00:00,
2013-10-16 13:05:00,72.1,62.7,29.79,North,-999,-999.0,-999.0,72,0.00,,,0.00,HomebrewedOnLinux,2013-10-16 17:05:00,
2013-10-16 13:10:00,72.5,63.1,29.79,North,-999,-999.0,-999.0,72,0.00,,,0.00,HomebrewedOnLinux,2013-10-16 17:10:00,
2013-10-16 13:15:00,72.7,63.0,29.79,North,-999,-999.0,-999.0,72,0.00,,,0.00,HomebrewedOnLinux,2013-10-16 17:15:00,
2013-10-16 13:20:00,72.5,62.5,29.79,North,-999,-999.0,-999.0,71,0.00,,,0.00,HomebrewedOnLinux,2013-10-16 17:20:00,
2013-10-16 13:25:00,72.7,62.7,29.79,North,-999,-999.0,-999.0,71,0.00,,,0.00,HomebrewedOnLinux,2013-10-16 17:25:00,
2013-10-16 13:30:00,72.9,62.7,29.79,North,-999,-999.0,-999.0,71,0.00,,,0.00,HomebrewedOnLinux,2013-10-16 17:30:00,
2013-10-16 13:35:00,73.0,62.7,29.79,North,-999,-999.0,-999.0,70,0.00,,,0.00,HomebrewedOnLinux,2013-10-16 17:35:00,
2013-10-16 13:40:00,73.0,62.7,29.79,North,-999,-999.0,-999.0,70,0.00,,,0.00,HomebrewedOnLinux,2013-10-16 17:40:00,
2013-10-16 13:45:00,73.4,63.0,29.79,North,-999,-999.0,-999.0,70,0.00,,,0.00,HomebrewedOnLinux,2013-10-16 17:45:00,
2013-10-16 13:50:00,73.4,62.4,29.79,North,-999,-999.0,-999.0,68,0.00,,,0.00,HomebrewedOnLinux,2013-10-16 17:50:00,
2013-10-16 13:55:00,73.2,62.5,29.79,North,-999,-999.0,-999.0,69,0.00,,,0.00,HomebrewedOnLinux,2013-10-16 17:55:00,
2013-10-16 14:00:00,72.9,62.5,29.79,North,-999,-999.0,-999.0,70,0.00,,,0.00,HomebrewedOnLinux,2013-10-16 18:00:00,
2013-10-16 14:05:00,72.7,62.4,29.77,North,-999,-999.0,-999.0,70,0.00,,,0.00,HomebrewedOnLinux,2013-10-16 18:05:00,
2013-10-16 14:10:00,72.3,62.4,29.77,North,-999,-999.0,-999.0,71,0.00,,,0.00,HomebrewedOnLinux,2013-10-16 18:10:00,
2013-10-16 14:15:00,72.3,62.5,29.77,North,-999,-999.0,-999.0,71,0.00,,,0.00,HomebrewedOnLinux,2013-10-16 18:15:00,
2013-10-16 14:20:00,72.9,62.5,29.77,North,-999,-999.0,-999.0,70,0.00,,,0.00,HomebrewedOnLinux,2013-10-16 18:20:00,
2013-10-16 14:25:00,73.0,62.7,29.77,North,-999,-999.0,-999.0,70,0.00,,,0.00,HomebrewedOnLinux,2013-10-16 18:25:00,
2013-10-16 14:30:00,73.4,62.5,29.77,North,-999,-999.0,-999.0,69,0.00,,,0.00,HomebrewedOnLinux,2013-10-16 18:30:00,
2013-10-16 14:35:00,73.4,62.2,29.74,North,-999,-999.0,-999.0,68,0.00,,,0.00,HomebrewedOnLinux,2013-10-16 18:35:00,
2013-10-16 14:40:00,73.6,62.4,29.74,North,-999,-999.0,-999.0,68,0.00,,,0.00,HomebrewedOnLinux,2013-10-16 18:40:00,
2013-10-16 14:45:00,73.8,62.4,29.74,North,-999,-999.0,-999.0,68,0.00,,,0.00,HomebrewedOnLinux,2013-10-16 18:45:00,
2013-10-16 14:55:00,73.2,62.3,29.74,North,-999,-999.0,-999.0,69,0.00,,,0.00,HomebrewedOnLinux,2013-10-16 18:55:00,
2013-10-16 15:00:00,73.4,62.7,29.74,North,-999,-999.0,-999.0,69,0.00,,,0.00,HomebrewedOnLinux,2013-10-16 19:00:00,
2013-10-16 15:05:00,73.6,62.4,29.74,North,-999,-999.0,-999.0,68,0.00,,,0.00,HomebrewedOnLinux,2013-10-16 19:05:00,
2013-10-16 15:10:00,73.8,62.2,29.74,North,-999,-999.0,-999.0,67,0.00,,,0.00,HomebrewedOnLinux,2013-10-16 19:10:00,
2013-10-16 15:15:00,73.6,61.9,29.74,North,-999,-999.0,-999.0,67,0.00,,,0.00,HomebrewedOnLinux,2013-10-16 19:15:00,
2013-10-16 15:20:00,73.4,62.0,29.74,North,-999,-999.0,-999.0,68,0.00,,,0.00,HomebrewedOnLinux,2013-10-16 19:20:00,
2013-10-16 15:25:00,73.2,62.4,29.74,North,-999,-999.0,-999.0,69,0.00,,,0.00,HomebrewedOnLinux,2013-10-16 19:25:00,
2013-10-16 15:30:00,73.4,62.4,29.74,North,-999,-999.0,-999.0,69,0.00,,,0.00,HomebrewedOnLinux,2013-10-16 19:30:00,
2013-10-16 15:35:00,73.4,62.3,29.74,North,-999,-999.0,-999.0,68,0.00,,,0.00,HomebrewedOnLinux,2013-10-16 19:35:00,
2013-10-16 15:40:00,73.6,62.3,29.74,North,-999,-999.0,-999.0,68,0.00,,,0.00,HomebrewedOnLinux,2013-10-16 19:40:00,
2013-10-16 15:45:00,73.8,62.1,29.74,North,-999,-999.0,-999.0,67,0.00,,,0.00,HomebrewedOnLinux,2013-10-16 19:45:00,
2013-10-16 15:50:00,73.9,62.3,29.74,North,-999,-999.0,-999.0,67,0.00,,,0.00,HomebrewedOnLinux,2013-10-16 19:50:00,
2013-10-16 15:55:00,73.9,62.3,29.74,North,-999,-999.0,-999.0,67,0.00,,,0.00,HomebrewedOnLinux,2013-10-16 19:55:00,
2013-10-16 16:00:00,73.8,62.0,29.74,North,-999,-999.0,-999.0,67,0.00,,,0.00,HomebrewedOnLinux,2013-10-16 20:00:00,
2013-10-16 16:05:00,73.8,61.9,29.74,North,-999,-999.0,-999.0,67,0.00,,,0.00,HomebrewedOnLinux,2013-10-16 20:05:00,
2013-10-16 16:10:00,73.9,62.4,29.74,North,-999,-999.0,-999.0,67,0.00,,,0.00,HomebrewedOnLinux,2013-10-16 20:10:00,
2013-10-16 16:15:00,73.9,62.4,29.74,North,-999,-999.0,-999.0,67,0.00,,,0.00,HomebrewedOnLinux,2013-10-16 20:15:00,
2013-10-16 16:20:00,74.3,62.4,29.74,North,-999,-999.0,-999.0,66,0.00,,,0.00,HomebrewedOnLinux,2013-10-16 20:20:00,
2013-10-16 16:25:00,74.1,62.3,29.74,North,-999,-999.0,-999.0,67,0.00,,,0.00,HomebrewedOnLinux,2013-10-16 20:25:00,
2013-10-16 16:30:00,73.9,62.0,29.74,North,-999,-999.0,-999.0,66,0.00,,,0.00,HomebrewedOnLinux,2013-10-16 20:30:00,
2013-10-16 16:35:00,73.8,62.1,29.74,North,-999,-999.0,-999.0,67,0.00,,,0.00,HomebrewedOnLinux,2013-10-16 20:35:00,
2013-10-16 16:40:00,73.8,62.1,29.74,North,-999,-999.0,-999.0,67,0.00,,,0.00,HomebrewedOnLinux,2013-10-16 20:40:00,
2013-10-16 16:45:00,73.4,62.2,29.74,North,-999,-999.0,-999.0,68,0.00,,,0.00,HomebrewedOnLinux,2013-10-16 20:45:00,
2013-10-16 16:55:00,72.9,62.2,29.74,North,-999,-999.0,-999.0,69,0.00,,,0.00,HomebrewedOnLinux,2013-10-16 20:55:00,
2013-10-16 17:00:00,72.9,62.2,29.74,North,-999,-999.0,-999.0,69,0.00,,,0.00,HomebrewedOnLinux,2013-10-16 21:00:00,
2013-10-16 17:05:00,72.7,62.3,29.74,North,-999,-999.0,-999.0,70,0.00,,,0.00,HomebrewedOnLinux,2013-10-16 21:05:00,
2013-10-16 17:10:00,72.5,62.4,29.74,North,-999,-999.0,-999.0,71,0.00,,,0.00,HomebrewedOnLinux,2013-10-16 21:10:00,
2013-10-16 17:15:00,72.5,62.8,29.74,North,-999,-999.0,-999.0,72,0.00,,,0.00,HomebrewedOnLinux,2013-10-16 21:15:00,
2013-10-16 17:20:00,72.3,62.4,29.74,North,-999,-999.0,-999.0,71,0.00,,,0.00,HomebrewedOnLinux,2013-10-16 21:20:00,
2013-10-16 17:25:00,72.3,62.8,29.74,North,-999,-999.0,-999.0,72,0.00,,,0.00,HomebrewedOnLinux,2013-10-16 21:25:00,
2013-10-16 17:30:00,72.1,62.6,29.74,North,-999,-999.0,-999.0,72,0.00,,,0.00,HomebrewedOnLinux,2013-10-16 21:30:00,
2013-10-16 17:35:00,72.1,62.7,29.74,North,-999,-999.0,-999.0,72,0.00,,,0.00,HomebrewedOnLinux,2013-10-16 21:35:00,
2013-10-16 17:40:00,72.0,63.1,29.74,North,-999,-999.0,-999.0,74,0.00,,,0.00,HomebrewedOnLinux,2013-10-16 21:40:00,
2013-10-16 17:50:00,71.8,63.4,29.74,North,-999,-999.0,-999.0,75,0.00,,,0.00,HomebrewedOnLinux,2013-10-16 21:50:00,
2013-10-16 17:55:00,71.8,63.4,29.74,North,-999,-999.0,-999.0,75,0.00,,,0.00,HomebrewedOnLinux,2013-10-16 21:55:00,
2013-10-16 18:00:00,71.8,63.8,29.74,North,-999,-999.0,-999.0,76,0.00,,,0.00,HomebrewedOnLinux,2013-10-16 22:00:00,
2013-10-16 18:05:00,71.6,63.6,29.77,North,-999,-999.0,-999.0,76,0.00,,,0.00,HomebrewedOnLinux,2013-10-16 22:05:00,
2013-10-16 18:10:00,71.6,63.6,29.77,North,-999,-999.0,-999.0,76,0.00,,,0.00,HomebrewedOnLinux,2013-10-16 22:10:00,
2013-10-16 18:15:00,71.6,63.9,29.77,North,-999,-999.0,-999.0,77,0.00,,,0.00,HomebrewedOnLinux,2013-10-16 22:15:00,
2013-10-16 18:20:00,71.6,64.0,29.74,North,-999,-999.0,-999.0,77,0.00,,,0.00,HomebrewedOnLinux,2013-10-16 22:20:00,
2013-10-16 18:25:00,71.6,64.1,29.74,North,-999,-999.0,-999.0,77,0.00,,,0.00,HomebrewedOnLinux,2013-10-16 22:25:00,
2013-10-16 18:30:00,71.4,64.2,29.74,North,-999,-999.0,-999.0,78,0.00,,,0.00,HomebrewedOnLinux,2013-10-16 22:30:00,
2013-10-16 18:35:00,71.4,64.2,29.74,North,-999,-999.0,-999.0,78,0.00,,,0.00,HomebrewedOnLinux,2013-10-16 22:35:00,
2013-10-16 18:40:00,71.2,64.3,29.74,North,-999,-999.0,-999.0,79,0.00,,,0.00,HomebrewedOnLinux,2013-10-16 22:40:00,
2013-10-16 18:45:00,71.2,64.3,29.74,North,-999,-999.0,-999.0,79,0.00,,,0.00,HomebrewedOnLinux,2013-10-16 22:45:00,
2013-10-16 18:50:00,71.1,64.3,29.74,North,-999,-999.0,-999.0,79,0.00,,,0.00,HomebrewedOnLinux,2013-10-16 22:50:00,
2013-10-16 18:55:00,71.1,64.4,29.74,North,-999,-999.0,-999.0,80,0.00,,,0.00,HomebrewedOnLinux,2013-10-16 22:55:00,
2013-10-16 19:00:00,70.9,64.2,29.74,North,-999,-999.0,-999.0,80,0.00,,,0.00,HomebrewedOnLinux,2013-10-16 23:00:00,
2013-10-16 19:05:00,70.9,64.4,29.71,North,-999,-999.0,-999.0,80,0.00,,,0.00,HomebrewedOnLinux,2013-10-16 23:05:00,
2013-10-16 19:10:00,70.7,64.2,29.71,North,-999,-999.0,-999.0,80,0.00,,,0.00,HomebrewedOnLinux,2013-10-16 23:10:00,
2013-10-16 19:15:00,70.7,64.2,29.71,North,-999,-999.0,-999.0,80,0.00,,,0.00,HomebrewedOnLinux,2013-10-16 23:15:00,
2013-10-16 19:20:00,70.5,64.2,29.74,North,-999,-999.0,-999.0,80,0.00,,,0.00,HomebrewedOnLinux,2013-10-16 23:20:00,
2013-10-16 19:25:00,70.5,64.0,29.74,North,-999,-999.0,-999.0,80,0.00,,,0.00,HomebrewedOnLinux,2013-10-16 23:25:00,
2013-10-16 19:30:00,70.3,63.9,29.74,North,-999,-999.0,-999.0,80,0.00,,,0.00,HomebrewedOnLinux,2013-10-16 23:30:00,
2013-10-16 19:35:00,70.3,63.9,29.74,North,-999,-999.0,-999.0,80,0.00,,,0.00,HomebrewedOnLinux,2013-10-16 23:35:00,
2013-10-16 19:40:00,70.2,63.7,29.74,North,-999,-999.0,-999.0,80,0.00,,,0.00,HomebrewedOnLinux,2013-10-16 23:40:00,
2013-10-16 19:50:00,70.0,63.9,29.71,North,-999,-999.0,-999.0,81,0.00,,,0.00,HomebrewedOnLinux,2013-10-16 23:50:00,
2013-10-16 19:55:00,70.0,63.9,29.71,North,-999,-999.0,-999.0,81,0.00,,,0.00,HomebrewedOnLinux,2013-10-16 23:55:00,
2013-10-16 20:00:00,70.0,63.9,29.71,North,-999,-999.0,-999.0,81,0.00,,,0.00,HomebrewedOnLinux,2013-10-17 00:00:00,
2013-10-16 20:05:00,70.0,63.6,29.71,North,-999,-999.0,-999.0,80,0.00,,,0.00,HomebrewedOnLinux,2013-10-17 00:05:00,
2013-10-16 20:10:00,70.0,63.5,29.71,North,-999,-999.0,-999.0,80,0.00,,,0.00,HomebrewedOnLinux,2013-10-17 00:10:00,
2013-10-16 20:15:00,69.8,63.3,29.71,North,-999,-999.0,-999.0,80,0.00,,,0.00,HomebrewedOnLinux,2013-10-17 00:15:00,
2013-10-16 20:20:00,69.8,63.3,29.74,North,-999,-999.0,-999.0,80,0.00,,,0.00,HomebrewedOnLinux,2013-10-17 00:20:00,
2013-10-16 20:25:00,69.6,63.4,29.74,North,-999,-999.0,-999.0,81,0.00,,,0.00,HomebrewedOnLinux,2013-10-17 00:25:00,
2013-10-16 20:30:00,69.6,63.5,29.74,North,-999,-999.0,-999.0,81,0.00,,,0.00,HomebrewedOnLinux,2013-10-17 00:30:00,
2013-10-16 20:35:00,69.6,63.5,29.74,North,-999,-999.0,-999.0,81,0.00,,,0.00,HomebrewedOnLinux,2013-10-17 00:35:00,
2013-10-16 20:40:00,69.6,63.5,29.74,North,-999,-999.0,-999.0,81,0.00,,,0.00,HomebrewedOnLinux,2013-10-17 00:40:00,
2013-10-16 20:45:00,69.6,63.5,29.74,North,-999,-999.0,-999.0,81,0.00,,,0.00,HomebrewedOnLinux,2013-10-17 00:45:00,
2013-10-16 20:50:00,69.6,63.5,29.74,North,-999,-999.0,-999.0,81,0.00,,,0.00,HomebrewedOnLinux,2013-10-17 00:50:00,
2013-10-16 20:55:00,69.6,63.5,29.74,North,-999,-999.0,-999.0,81,0.00,,,0.00,HomebrewedOnLinux,2013-10-17 00:55:00,
2013-10-16 21:00:00,69.6,63.9,29.74,North,-999,-999.0,-999.0,82,0.00,,,0.00,HomebrewedOnLinux,2013-10-17 01:00:00,
2013-10-16 21:05:00,69.4,63.7,29.74,North,-999,-999.0,-999.0,82,0.00,,,0.00,HomebrewedOnLinux,2013-10-17 01:05:00,
2013-10-16 21:10:00,69.4,63.7,29.74,North,-999,-999.0,-999.0,82,0.00,,,0.00,HomebrewedOnLinux,2013-10-17 01:10:00,
2013-10-16 21:15:00,69.4,63.7,29.74,North,-999,-999.0,-999.0,82,0.00,,,0.00,HomebrewedOnLinux,2013-10-17 01:15:00,
2013-10-16 21:20:00,69.4,63.7,29.74,North,-999,-999.0,-999.0,82,0.00,,,0.00,HomebrewedOnLinux,2013-10-17 01:20:00,
2013-10-16 21:25:00,69.4,63.7,29.74,North,-999,-999.0,-999.0,82,0.00,,,0.00,HomebrewedOnLinux,2013-10-17 01:25:00,
2013-10-16 21:30:00,69.4,63.3,29.74,North,-999,-999.0,-999.0,81,0.00,,,0.00,HomebrewedOnLinux,2013-10-17 01:30:00,
2013-10-16 21:35:00,69.4,63.6,29.77,North,-999,-999.0,-999.0,82,0.00,,,0.00,HomebrewedOnLinux,2013-10-17 01:35:00,
2013-10-16 21:40:00,69.3,63.5,29.77,North,-999,-999.0,-999.0,82,0.00,,,0.00,HomebrewedOnLinux,2013-10-17 01:40:00,
2013-10-16 21:50:00,69.3,63.8,29.77,North,-999,-999.0,-999.0,83,0.00,,,0.00,HomebrewedOnLinux,2013-10-17 01:50:00,
2013-10-16 21:55:00,69.3,63.9,29.77,North,-999,-999.0,-999.0,83,0.00,,,0.00,HomebrewedOnLinux,2013-10-17 01:55:00,
2013-10-16 22:00:00,69.3,63.7,29.77,North,-999,-999.0,-999.0,83,0.00,,,0.00,HomebrewedOnLinux,2013-10-17 02:00:00,
2013-10-16 22:05:00,69.3,63.5,29.77,North,-999,-999.0,-999.0,82,0.00,,,0.00,HomebrewedOnLinux,2013-10-17 02:05:00,
2013-10-16 22:10:00,69.3,63.5,29.77,North,-999,-999.0,-999.0,82,0.00,,,0.00,HomebrewedOnLinux,2013-10-17 02:10:00,
2013-10-16 22:15:00,69.1,63.3,29.77,North,-999,-999.0,-999.0,82,0.00,,,0.00,HomebrewedOnLinux,2013-10-17 02:15:00,
2013-10-16 22:20:00,69.1,63.3,29.74,North,-999,-999.0,-999.0,82,0.00,,,0.00,HomebrewedOnLinux,2013-10-17 02:20:00,
2013-10-16 22:25:00,69.1,63.3,29.74,North,-999,-999.0,-999.0,82,0.00,,,0.00,HomebrewedOnLinux,2013-10-17 02:25:00,
2013-10-16 22:30:00,69.1,63.3,29.74,North,-999,-999.0,-999.0,82,0.00,,,0.00,HomebrewedOnLinux,2013-10-17 02:30:00,
2013-10-16 22:35:00,68.9,63.2,29.77,North,-999,-999.0,-999.0,82,0.00,,,0.00,HomebrewedOnLinux,2013-10-17 02:35:00,
2013-10-16 22:40:00,68.9,63.2,29.77,North,-999,-999.0,-999.0,82,0.00,,,0.00,HomebrewedOnLinux,2013-10-17 02:40:00,
2013-10-16 22:45:00,68.9,63.2,29.77,North,-999,-999.0,-999.0,82,0.00,,,0.00,HomebrewedOnLinux,2013-10-17 02:45:00,
2013-10-16 22:50:00,68.9,63.2,29.77,North,-999,-999.0,-999.0,82,0.00,,,0.00,HomebrewedOnLinux,2013-10-17 02:50:00,
2013-10-16 22:55:00,68.7,63.0,29.77,North,-999,-999.0,-999.0,82,0.00,,,0.00,HomebrewedOnLinux,2013-10-17 02:55:00,
2013-10-16 23:00:00,68.7,63.3,29.77,North,-999,-999.0,-999.0,83,0.00,,,0.00,HomebrewedOnLinux,2013-10-17 03:00:00,
2013-10-16 23:05:00,68.5,63.2,29.77,North,-999,-999.0,-999.0,83,0.00,,,0.00,HomebrewedOnLinux,2013-10-17 03:05:00,
2013-10-16 23:15:00,68.5,63.2,29.77,North,-999,-999.0,-999.0,83,0.00,,,0.00,HomebrewedOnLinux,2013-10-17 03:15:00,
2013-10-16 23:20:00,68.5,63.2,29.77,North,-999,-999.0,-999.0,83,0.00,,,0.00,HomebrewedOnLinux,2013-10-17 03:20:00,
2013-10-16 23:25:00,68.5,63.2,29.77,North,-999,-999.0,-999.0,83,0.00,,,0.00,HomebrewedOnLinux,2013-10-17 03:25:00,
2013-10-16 23:30:00,68.5,63.5,29.77,North,-999,-999.0,-999.0,84,0.00,,,0.00,HomebrewedOnLinux,2013-10-17 03:30:00,
2013-10-16 23:35:00,68.5,63.5,29.74,North,-999,-999.0,-999.0,84,0.00,,,0.00,HomebrewedOnLinux,2013-10-17 03:35:00,
2013-10-16 23:40:00,68.4,63.3,29.74,North,-999,-999.0,-999.0,84,0.00,,,0.00,HomebrewedOnLinux,2013-10-17 03:40:00,
2013-10-16 23:45:00,68.4,63.3,29.74,North,-999,-999.0,-999.0,84,0.00,,,0.00,HomebrewedOnLinux,2013-10-17 03:45:00,
2013-10-16 23:50:00,68.4,63.3,29.74,North,-999,-999.0,-999.0,84,0.00,,,0.00,HomebrewedOnLinux,2013-10-17 03:50:00,
2013-10-16 23:55:00,68.2,63.2,29.74,North,-999,-999.0,-999.0,84,0.00,,,0.00,HomebrewedOnLinux,2013-10-17 03:55:00,